Time;durP1;ratioP1;P1;durP2;ratioP2;P2;SDS_P1;SDS_P2;PMS_P1;PMS_P2;Temp;Humidity;BMP_temperature;BMP_pressure;BME280_temperature;BME280_humidity;BME280_pressure;Samples;Min_cycle;Max_cycle;Signal;HPM_P1;HPM_P2
2022/12/26 00:01:21;;;;;;;;;;;;;;;15.42;47.69;100224.44;4927244;28;124108;-67
2022/12/26 00:03:46;;;;;;;;;;;;;;;15.42;47.73;100225.25;4922554;28;100973;-67
2022/12/26 00:06:14;;;;;;;;;;;;;;;15.42;47.85;100224.44;4926072;28;116725;-67
2022/12/26 00:08:40;;;;;;;;;;;;;;;15.42;47.65;100229.88;4924613;28;108723;-69
2022/12/26 00:11:06;;;;;;;;;;;;;;;15.42;47.75;100230.69;4918205;28;98194;-67
2022/12/26 00:13:32;;;;;;;;;;;;;;;15.41;47.67;100231.81;4950210;28;128342;-70
2022/12/26 00:15:58;;;;;;;;;;;;;;;15.40;47.70;100230.16;4939682;28;110081;-68
2022/12/26 00:18:24;;;;;;;;;;;;;;;15.41;47.81;100214.72;4920044;28;131117;-68
2022/12/26 00:20:50;;;;;;;;;;;;;;;15.42;47.89;100219.03;4934962;28;122702;-70
2022/12/26 00:23:16;;;;;;;;;;;;;;;15.41;47.76;100218.22;4927913;28;126430;-70
2022/12/26 00:25:42;;;;;;;;;;;;;;;15.41;47.98;100214.72;4939105;28;127802;-69
2022/12/26 00:28:07;;;;;;;;;;;;;;;15.41;47.93;100222.84;4923267;28;125925;-68
2022/12/26 00:30:36;;;;;;;;;;;;;;;15.41;47.71;100228.28;4937686;28;122439;-69
2022/12/26 00:33:01;;;;;;;;;;;;;;;15.41;47.87;100229.09;4920912;28;110769;-70
2022/12/26 00:35:27;;;;;;;;;;;;;;;15.42;47.77;100232.59;4922972;28;98614;-70
2022/12/26 00:37:53;;;;;;;;;;;;;;;15.42;47.68;100235.31;4940135;28;127720;-69
2022/12/26 00:40:19;;;;;;;;;;;;;;;15.43;47.76;100250.50;4923117;28;121381;-70
2022/12/26 00:42:45;;;;;;;;;;;;;;;15.43;47.58;100242.34;4938156;27;131186;-69
2022/12/26 00:45:11;;;;;;;;;;;;;;;15.42;47.73;100236.13;4957640;28;128379;-71
2022/12/26 00:47:37;;;;;;;;;;;;;;;15.43;47.80;100226.84;4924307;28;97985;-70
2022/12/26 00:50:03;;;;;;;;;;;;;;;15.44;47.89;100225.75;4957678;28;122299;-68
2022/12/26 00:52:29;;;;;;;;;;;;;;;15.44;47.79;100231.19;4972100;28;121169;-69
2022/12/26 00:54:55;;;;;;;;;;;;;;;15.44;47.75;100209.47;4947505;28;116932;-70
2022/12/26 00:57:21;;;;;;;;;;;;;;;15.44;47.95;100205.91;4955898;28;126879;-69
2022/12/26 00:59:47;;;;;;;;;;;;;;;15.44;47.76;100201.31;4944597;28;122027;-68
2022/12/26 01:04:57;;;;;;;;;;;;;;;15.43;47.94;100210.56;4963989;28;98274;-69
2022/12/26 01:07:23;;;;;;;;;;;;;;;15.43;47.89;100209.75;4958341;28;99243;-70
2022/12/26 01:09:49;;;;;;;;;;;;;;;15.42;47.83;100205.44;4960103;28;98100;-68
2022/12/26 01:12:15;;;;;;;;;;;;;;;15.42;47.63;100198.09;4946278;28;129240;-68
2022/12/26 01:14:41;;;;;;;;;;;;;;;15.42;47.79;100198.09;4945000;28;98115;-70
2022/12/26 01:17:07;;;;;;;;;;;;;;;15.42;47.63;100194.56;4947001;28;112599;-68
2022/12/26 01:19:33;;;;;;;;;;;;;;;15.42;47.90;100208.16;4943010;28;123365;-69
2022/12/26 01:21:59;;;;;;;;;;;;;;;15.41;47.92;100206.56;4960443;28;127958;-68
2022/12/26 01:24:25;;;;;;;;;;;;;;;15.41;47.75;100193.78;4946018;28;98248;-68
2022/12/26 01:26:50;;;;;;;;;;;;;;;15.41;47.96;100182.91;4960175;28;128660;-68
2022/12/26 01:29:16;;;;;;;;;;;;;;;15.41;47.80;100177.47;4944239;28;122615;-68
2022/12/26 01:31:42;;;;;;;;;;;;;;;15.41;47.59;100198.41;4928873;28;127528;-68
2022/12/26 01:34:08;;;;;;;;;;;;;;;15.44;47.93;100200.50;4944329;28;127716;-68
2022/12/26 01:36:34;;;;;;;;;;;;;;;15.51;47.93;100203.59;4944226;28;115803;-68
2022/12/26 01:39:00;;;;;;;;;;;;;;;15.59;47.69;100191.19;4950869;28;121208;-70
2022/12/26 01:41:26;;;;;;;;;;;;;;;15.65;47.94;100192.72;4943104;28;114902;-69
2022/12/26 01:44:00;;;;;;;;;;;;;;;15.71;47.69;100196.91;4947337;28;99946;-70
2022/12/26 01:46:29;;;;;;;;;;;;;;;15.76;47.65;100182.41;4929770;28;100182;-70
2022/12/26 01:48:58;;;;;;;;;;;;;;;15.81;47.72;100193.16;4978527;28;97847;-71
2022/12/26 01:51:24;;;;;;;;;;;;;;;15.84;47.68;100187.94;4944288;28;97900;-68
2022/12/26 01:53:52;;;;;;;;;;;;;;;15.85;47.87;100188.72;4935537;28;99727;-70
2022/12/26 01:56:34;;;;;;;;;;;;;;;15.87;47.93;100195.44;4960943;28;109528;-71
2022/12/26 01:59:12;;;;;;;;;;;;;;;15.90;47.80;100194.81;4944132;28;114336;-71
2022/12/26 02:01:39;;;;;;;;;;;;;;;15.92;47.78;100184.47;4942097;28;118047;-69
2022/12/26 02:06:50;;;;;;;;;;;;;;;15.95;47.84;100180.31;4948638;28;99894;-71
2022/12/26 02:09:16;;;;;;;;;;;;;;;15.95;47.78;100175.69;4960407;28;98312;-70
2022/12/26 02:11:46;;;;;;;;;;;;;;;15.98;47.89;100184.31;4960382;28;126803;-70
2022/12/26 02:14:12;;;;;;;;;;;;;;;15.97;47.91;100172.66;4944846;28;100370;-69
2022/12/26 02:16:38;;;;;;;;;;;;;;;15.99;47.86;100175.84;4947700;28;98249;-69
2022/12/26 02:19:05;;;;;;;;;;;;;;;15.99;47.83;100169.63;4957875;28;98218;-70
2022/12/26 02:21:31;;;;;;;;;;;;;;;15.99;47.80;100175.84;4943649;28;118164;-70
2022/12/26 02:24:20;;;;;;;;;;;;;;;16.00;47.84;100182.13;4960488;28;98280;-69
2022/12/26 02:27:01;;;;;;;;;;;;;;;16.00;47.78;100160.38;4944607;28;113194;-69
2022/12/26 02:29:51;;;;;;;;;;;;;;;16.01;48.01;100170.13;4979002;28;98281;-70
2022/12/26 02:32:36;;;;;;;;;;;;;;;16.01;47.95;100168.19;4975925;27;106974;-69
2022/12/26 02:35:19;;;;;;;;;;;;;;;16.01;47.83;100176.34;4975834;27;122464;-69
2022/12/26 02:37:51;;;;;;;;;;;;;;;16.02;47.69;100171.72;4943729;28;99891;-69
2022/12/26 02:40:29;;;;;;;;;;;;;;;16.02;47.94;100172.53;4978603;28;97978;-69
2022/12/26 02:43:03;;;;;;;;;;;;;;;16.01;47.79;100165.50;4961129;28;98341;-69
2022/12/26 02:48:28;;;;;;;;;;;;;;;16.03;47.75;100162.44;4947793;28;98638;-71
2022/12/26 03:14:30;;;;;;;;;;;;;;;16.07;47.89;100177.03;4952589;28;98135;-69
2022/12/26 03:17:20;;;;;;;;;;;;;;;16.06;47.92;100184.38;4945770;28;117649;-69
2022/12/26 03:19:58;;;;;;;;;;;;;;;16.07;47.76;100174.31;4947983;28;98125;-70
2022/12/26 03:22:42;;;;;;;;;;;;;;;16.07;47.80;100177.03;4942224;28;98146;-70
2022/12/26 03:27:55;;;;;;;;;;;;;;;16.08;47.83;100162.34;4947443;28;98120;-69
2022/12/26 03:34:15;;;;;;;;;;;;;;;16.07;47.73;100164.25;4948298;28;98114;-69
2022/12/26 03:35:51;;;;;;;;;;;;;;;16.07;47.88;100166.97;4950524;28;97853;-69
2022/12/26 03:38:17;;;;;;;;;;;;;;;16.07;47.69;100168.88;4962547;28;119232;-71
2022/12/26 04:19:25;;;;;;;;;;;;;;;16.05;47.73;100190.13;4963906;28;99601;-70
2022/12/26 04:44:17;;;;;;;;;;;;;;;16.04;47.65;100210.28;4963496;28;98010;-70
2022/12/26 04:46:45;;;;;;;;;;;;;;;16.05;47.83;100211.88;4945378;28;123544;-69
2022/12/26 04:51:58;;;;;;;;;;;;;;;16.05;47.76;100218.13;4947944;28;98078;-69
2022/12/26 04:54:24;;;;;;;;;;;;;;;16.06;47.63;100211.56;4925429;28;124382;-69
2022/12/26 04:56:50;;;;;;;;;;;;;;;16.06;47.69;100208.84;4928036;28;99733;-69
2022/12/26 04:59:16;;;;;;;;;;;;;;;16.07;47.72;100209.66;4944738;28;128169;-69
2022/12/26 05:10:26;;;;;;;;;;;;;;;16.06;47.78;100218.91;4968886;27;97882;-69
2022/12/26 05:12:52;;;;;;;;;;;;;;;16.06;47.65;100219.72;4959879;28;97887;-69
2022/12/26 05:15:18;;;;;;;;;;;;;;;16.07;47.68;100220.50;4960663;28;121893;-71
2022/12/26 05:29:03;;;;;;;;;;;;;;;16.11;47.64;100218.78;4960709;28;98469;-70
2022/12/26 05:31:29;;;;;;;;;;;;;;;16.12;47.77;100217.69;4962440;28;98410;-70
2022/12/26 05:34:07;;;;;;;;;;;;;;;16.13;47.87;100211.94;4945491;28;100279;-68
2022/12/26 05:36:55;;;;;;;;;;;;;;;16.15;47.70;100206.16;4948147;28;98155;-70
2022/12/26 05:39:21;;;;;;;;;;;;;;;16.14;47.85;100205.38;4976849;28;98255;-70
2022/12/26 05:41:47;;;;;;;;;;;;;;;16.15;47.84;100209.72;4949172;28;124706;-70
2022/12/26 05:44:13;;;;;;;;;;;;;;;16.17;47.80;100209.41;4944294;28;109060;-71
2022/12/26 05:46:41;;;;;;;;;;;;;;;16.17;47.62;100220.28;4941430;28;97982;-71
2022/12/26 05:49:07;;;;;;;;;;;;;;;16.16;47.77;100222.19;4943420;28;97931;-69
2022/12/26 05:51:33;;;;;;;;;;;;;;;16.18;47.86;100219.94;4943495;28;100165;-71
2022/12/26 05:53:59;;;;;;;;;;;;;;;16.19;47.72;100224.31;4944719;28;98806;-69
2022/12/26 05:56:25;;;;;;;;;;;;;;;16.19;47.83;100218.03;4945057;28;124441;-70
2022/12/26 05:58:58;;;;;;;;;;;;;;;16.19;47.76;100212.59;4949303;28;128362;-68
2022/12/26 06:01:25;;;;;;;;;;;;;;;16.20;47.78;100206.06;4925104;28;98016;-69
2022/12/26 06:03:55;;;;;;;;;;;;;;;16.20;47.73;100222.38;4960510;28;98030;-70
2022/12/26 06:06:22;;;;;;;;;;;;;;;16.19;47.75;100232.47;4941182;28;98009;-69
2022/12/26 06:08:49;;;;;;;;;;;;;;;16.21;47.64;100229.41;4922792;28;99640;-71
2022/12/26 06:11:15;;;;;;;;;;;;;;;16.21;47.66;100229.41;4959134;28;99402;-69
2022/12/26 06:13:41;;;;;;;;;;;;;;;16.20;47.66;100225.91;4944122;28;98036;-69
2022/12/26 06:16:08;;;;;;;;;;;;;;;16.20;47.67;100214.22;4959848;28;98079;-71
2022/12/26 06:18:34;;;;;;;;;;;;;;;16.22;47.58;100211.97;4928042;28;119099;-71
2022/12/26 06:21:18;;;;;;;;;;;;;;;16.21;47.66;100207.66;4942878;28;127536;-69
2022/12/26 06:23:44;;;;;;;;;;;;;;;16.21;47.79;100202.22;4944730;28;98221;-70
2022/12/26 06:26:11;;;;;;;;;;;;;;;16.22;47.76;100192.94;4945543;28;98047;-69
2022/12/26 06:28:38;;;;;;;;;;;;;;;16.23;47.60;100215.50;4960753;28;98184;-66
2022/12/26 06:31:06;;;;;;;;;;;;;;;16.23;47.69;100201.91;4956970;28;99599;-70
2022/12/26 06:33:32;;;;;;;;;;;;;;;16.25;47.72;100196.97;4943143;28;121338;-66
2022/12/26 06:36:12;;;;;;;;;;;;;;;16.26;47.70;100204.00;4944400;28;100871;-69
2022/12/26 06:38:38;;;;;;;;;;;;;;;16.26;47.62;100201.28;4944694;28;98276;-66
2022/12/26 06:41:05;;;;;;;;;;;;;;;16.29;47.79;100204.19;4957943;28;121950;-66
2022/12/26 06:43:30;;;;;;;;;;;;;;;16.30;47.66;100208.50;4926899;28;99303;-66
2022/12/26 06:45:57;;;;;;;;;;;;;;;16.32;47.81;100219.09;4944883;28;101928;-69
2022/12/26 06:48:23;;;;;;;;;;;;;;;16.33;47.77;100217.97;4944197;28;97993;-66
2022/12/26 06:50:49;;;;;;;;;;;;;;;16.34;47.84;100233.16;4947312;28;127174;-71
2022/12/26 06:53:15;;;;;;;;;;;;;;;16.34;47.65;100225.81;4942759;28;98335;-66
2022/12/26 06:55:41;;;;;;;;;;;;;;;16.35;47.72;100219.28;4940887;27;105827;-69
2022/12/26 06:58:07;;;;;;;;;;;;;;;16.35;47.67;100235.59;4953365;28;130385;-70
2022/12/26 07:00:33;;;;;;;;;;;;;;;16.38;47.65;100254.00;4957652;28;98051;-70
2022/12/26 07:02:59;;;;;;;;;;;;;;;16.38;47.70;100261.34;4944513;27;126002;-70
2022/12/26 07:05:25;;;;;;;;;;;;;;;16.40;47.74;100270.00;4955961;28;121875;-67
2022/12/26 07:07:51;;;;;;;;;;;;;;;16.40;47.64;100256.41;4958389;28;127459;-67
2022/12/26 07:10:18;;;;;;;;;;;;;;;16.41;47.66;100264.25;4939853;27;99811;-71
2022/12/26 07:12:44;;;;;;;;;;;;;;;16.42;47.76;100262.34;4939017;28;98052;-66
2022/12/26 07:15:10;;;;;;;;;;;;;;;16.41;47.68;100264.25;4952948;28;107159;-71
2022/12/26 07:17:36;;;;;;;;;;;;;;;16.43;47.55;100264.75;4943542;27;98813;-67
2022/12/26 07:20:03;;;;;;;;;;;;;;;16.44;47.84;100260.13;4938879;28;99573;-67
2022/12/26 07:22:29;;;;;;;;;;;;;;;16.46;47.69;100266.03;4939534;28;98283;-70
2022/12/26 07:24:55;;;;;;;;;;;;;;;16.49;47.61;100259.19;4937594;28;123930;-70
2022/12/26 07:27:21;;;;;;;;;;;;;;;16.50;47.67;100263.50;4954579;28;128487;-67
2022/12/26 07:29:47;;;;;;;;;;;;;;;16.51;47.67;100249.59;4921435;28;113913;-71
2022/12/26 07:32:13;;;;;;;;;;;;;;;16.54;47.57;100254.41;4955721;27;118921;-70
2022/12/26 07:34:40;;;;;;;;;;;;;;;16.57;47.50;100269.31;4956969;28;121960;-66
2022/12/26 07:37:05;;;;;;;;;;;;;;;16.60;47.50;100280.38;4941801;27;98495;-67
2022/12/26 07:39:31;;;;;;;;;;;;;;;16.66;47.56;100275.59;4957444;27;126798;-67
2022/12/26 07:41:57;;;;;;;;;;;;;;;16.70;47.49;100271.13;4939432;28;99449;-66
2022/12/26 07:44:25;;;;;;;;;;;;;;;16.74;47.45;100274.88;4952995;27;98090;-70
2022/12/26 07:46:51;;;;;;;;;;;;;;;16.75;47.57;100279.19;4939391;27;106622;-66
2022/12/26 07:49:17;;;;;;;;;;;;;;;16.76;47.63;100285.44;4940585;28;116976;-70
2022/12/26 07:51:43;;;;;;;;;;;;;;;16.79;47.47;100293.78;4924992;27;127777;-66
2022/12/26 07:54:09;;;;;;;;;;;;;;;16.79;47.49;100299.22;4941168;27;103191;-71
2022/12/26 07:56:34;;;;;;;;;;;;;;;16.80;47.47;100292.66;4938538;28;99574;-66
2022/12/26 07:59:00;;;;;;;;;;;;;;;16.83;47.44;100291.25;4935595;27;124837;-66
2022/12/26 08:01:27;;;;;;;;;;;;;;;16.87;47.40;100286.78;4942491;28;128200;-67
2022/12/26 08:03:53;;;;;;;;;;;;;;;16.90;47.31;100280.72;4952360;28;99031;-71
2022/12/26 08:06:19;;;;;;;;;;;;;;;16.95;47.47;100285.22;4937391;27;128008;-71
2022/12/26 08:08:45;;;;;;;;;;;;;;;16.98;47.29;100269.06;4939746;28;99588;-69
2022/12/26 08:11:16;;;;;;;;;;;;;;;17.02;47.38;100274.69;4926183;28;114134;-66
2022/12/26 08:13:42;;;;;;;;;;;;;;;17.06;47.25;100283.81;4960346;27;98443;-71
2022/12/26 08:16:09;;;;;;;;;;;;;;;17.13;47.13;100273.25;4942053;28;99711;-71
2022/12/26 08:18:35;;;;;;;;;;;;;;;17.18;47.16;100271.19;4961245;28;98532;-66
2022/12/26 08:21:01;;;;;;;;;;;;;;;17.24;47.10;100271.03;4974462;27;99673;-66
2022/12/26 08:23:27;;;;;;;;;;;;;;;17.27;47.25;100284.84;4941685;28;98204;-70
2022/12/26 08:25:53;;;;;;;;;;;;;;;17.27;47.26;100294.94;4944195;28;117430;-68
2022/12/26 08:28:19;;;;;;;;;;;;;;;17.26;47.40;100288.69;4960771;27;127195;-67
2022/12/26 08:30:45;;;;;;;;;;;;;;;17.23;47.35;100286.59;4959631;28;126239;-71
2022/12/26 08:33:11;;;;;;;;;;;;;;;17.23;47.37;100292.03;4941848;28;98084;-66
2022/12/26 08:35:37;;;;;;;;;;;;;;;17.22;47.42;100284.19;4942724;27;128520;-66
2022/12/26 08:38:03;;;;;;;;;;;;;;;17.27;47.33;100284.84;4943647;28;98504;-67
2022/12/26 08:40:29;;;;;;;;;;;;;;;17.33;47.09;100280.88;4951040;28;99573;-67
2022/12/26 08:42:55;;;;;;;;;;;;;;;17.37;47.13;100284.56;4926643;27;121784;-70
2022/12/26 08:45:21;;;;;;;;;;;;;;;17.35;47.17;100288.72;4956733;28;124033;-70
2022/12/26 08:47:47;;;;;;;;;;;;;;;17.32;47.40;100301.03;4958541;27;127465;-69
2022/12/26 08:50:13;;;;;;;;;;;;;;;17.31;47.44;100285.81;4944135;27;128694;-71
2022/12/26 08:52:39;;;;;;;;;;;;;;;17.31;47.41;100293.97;4959249;28;99338;-66
2022/12/26 08:55:05;;;;;;;;;;;;;;;17.29;47.49;100295.41;4978435;27;127798;-66
2022/12/26 08:57:31;;;;;;;;;;;;;;;17.23;47.37;100292.03;4971954;27;114458;-70
2022/12/26 08:59:57;;;;;;;;;;;;;;;17.22;47.49;100312.22;4956618;28;98378;-66
2022/12/26 09:02:24;;;;;;;;;;;;;;;17.21;47.54;100301.63;4938610;27;123517;-70
2022/12/26 09:04:50;;;;;;;;;;;;;;;17.24;47.55;100303.72;4944751;27;99960;-71
2022/12/26 09:07:16;;;;;;;;;;;;;;;17.24;47.35;100301.00;4941963;28;115718;-66
2022/12/26 09:09:43;;;;;;;;;;;;;;;17.22;47.45;100289.63;4959410;27;105989;-66
2022/12/26 09:12:08;;;;;;;;;;;;;;;17.20;47.54;100292.66;4946092;27;98046;-67
2022/12/26 09:14:35;;;;;;;;;;;;;;;17.22;47.43;100284.19;4940397;28;110395;-71
2022/12/26 09:17:00;;;;;;;;;;;;;;;17.28;47.37;100291.88;4943432;27;98551;-66
2022/12/26 09:19:31;;;;;;;;;;;;;;;17.37;47.36;100286.44;4940592;28;128631;-66
2022/12/26 09:24:42;;;;;;;;;;;;;;;17.69;46.96;100308.97;4956362;27;100625;-67
2022/12/26 09:27:08;;;;;;;;;;;;;;;17.74;46.96;100311.56;4943760;27;117982;-71
2022/12/26 09:29:34;;;;;;;;;;;;;;;17.69;47.19;100315.22;4959181;27;107345;-67
2022/12/26 09:32:00;;;;;;;;;;;;;;;17.67;47.28;100325.63;4959837;28;97932;-68
2022/12/26 09:34:25;;;;;;;;;;;;;;;17.68;47.12;100319.06;4941402;27;98250;-71
2022/12/26 09:36:51;;;;;;;;;;;;;;;17.72;47.24;100324.69;4959758;28;128117;-70
2022/12/26 09:39:17;;;;;;;;;;;;;;;17.72;47.22;100321.94;4926039;28;128925;-71
2022/12/26 09:42:19;;;;;;;;;;;;;;;17.69;47.13;100317.97;4941703;27;122807;-69
2022/12/26 09:44:47;;;;;;;;;;;;;;;17.69;47.36;100319.88;4960105;28;112725;-70
2022/12/26 09:47:33;;;;;;;;;;;;;;;17.67;47.42;100314.72;4938599;27;123588;-66
2022/12/26 09:50:08;;;;;;;;;;;;;;;17.66;47.38;100302.25;4930025;27;98029;-71
2022/12/26 09:52:45;;;;;;;;;;;;;;;17.62;47.29;100299.34;4977596;27;98119;-70
2022/12/26 09:55:29;;;;;;;;;;;;;;;17.57;47.24;100312.34;4941026;28;98433;-66
2022/12/26 09:57:58;;;;;;;;;;;;;;;17.50;47.57;100310.06;4943694;28;113325;-70
2022/12/26 10:00:28;;;;;;;;;;;;;;;17.47;47.44;100301.72;4941898;28;125126;-66
2022/12/26 10:02:56;;;;;;;;;;;;;;;17.43;47.63;100299.63;4926255;27;103138;-66
2022/12/26 10:05:24;;;;;;;;;;;;;;;17.46;47.37;100292.75;4949002;27;98983;-69
2022/12/26 10:07:54;;;;;;;;;;;;;;;17.48;47.30;100309.56;4976194;27;98175;-66
2022/12/26 10:10:24;;;;;;;;;;;;;;;17.57;47.12;100290.53;4958252;27;114235;-66
2022/12/26 10:13:06;;;;;;;;;;;;;;;17.71;46.87;100293.91;4962505;27;98738;-67
2022/12/26 10:15:32;;;;;;;;;;;;;;;17.82;47.00;100299.88;4974003;27;98582;-70
2022/12/26 10:18:14;;;;;;;;;;;;;;;17.92;46.76;100294.13;4975651;27;98158;-66
2022/12/26 10:21:01;;;;;;;;;;;;;;;18.13;46.68;100300.53;4956386;28;98952;-66
2022/12/26 10:23:31;;;;;;;;;;;;;;;18.31;46.50;100295.88;4955394;28;98443;-70
2022/12/26 10:26:15;;;;;;;;;;;;;;;18.45;46.55;100292.16;4958200;27;98079;-66
2022/12/26 10:29:00;;;;;;;;;;;;;;;18.57;46.45;100292.28;4941945;28;98205;-66
2022/12/26 10:31:38;;;;;;;;;;;;;;;18.82;46.22;100307.00;4940596;27;98209;-67
2022/12/26 10:34:21;;;;;;;;;;;;;;;18.91;46.33;100301.53;4941039;27;99314;-71
2022/12/26 10:36:53;;;;;;;;;;;;;;;18.87;46.53;100299.44;4959793;27;97956;-71
2022/12/26 10:39:36;;;;;;;;;;;;;;;18.83;46.43;100311.34;4923413;28;117296;-67
2022/12/26 10:42:18;;;;;;;;;;;;;;;18.73;46.64;100300.78;4953957;28;101649;-67
2022/12/26 10:44:43;;;;;;;;;;;;;;;18.66;46.79;100293.03;4937794;28;100005;-71
2022/12/26 10:47:34;;;;;;;;;;;;;;;18.60;46.93;100297.88;4936893;28;128409;-66
2022/12/26 10:50:01;;;;;;;;;;;;;;;18.56;46.82;100301.59;4942482;28;99285;-66
2022/12/26 10:52:41;;;;;;;;;;;;;;;18.53;47.05;100302.25;4997375;27;98097;-67
2022/12/26 10:55:13;;;;;;;;;;;;;;;18.52;46.96;100292.47;4991498;27;98048;-66
2022/12/26 10:57:40;;;;;;;;;;;;;;;18.54;46.92;100292.91;4987408;27;98073;-66
2022/12/26 11:00:20;;;;;;;;;;;;;;;18.55;47.03;100291.78;4954522;27;100882;-66
2022/12/26 11:03:00;;;;;;;;;;;;;;;18.57;47.04;100290.34;4977808;27;100801;-69
2022/12/26 11:05:26;;;;;;;;;;;;;;;18.57;47.01;100298.53;4973527;27;105696;-66
2022/12/26 11:07:55;;;;;;;;;;;;;;;18.56;46.88;100291.47;4975025;27;128085;-69
2022/12/26 11:10:26;;;;;;;;;;;;;;;18.53;46.84;100296.78;4975059;27;98602;-66
2022/12/26 11:12:57;;;;;;;;;;;;;;;18.48;47.07;100294.22;4974310;27;126097;-66
2022/12/26 11:15:42;;;;;;;;;;;;;;;18.42;47.16;100299.03;4963434;27;102430;-66
2022/12/26 11:18:29;;;;;;;;;;;;;;;18.37;47.41;100301.94;4975901;27;112252;-70
2022/12/26 11:20:55;;;;;;;;;;;;;;;18.33;47.24;100304.53;4977161;27;115380;-69
2022/12/26 11:23:26;;;;;;;;;;;;;;;18.29;47.23;100302.75;4972951;27;98605;-65
2022/12/26 11:25:54;;;;;;;;;;;;;;;18.25;47.18;100310.00;4981458;27;99662;-65
2022/12/26 11:28:24;;;;;;;;;;;;;;;18.20;47.50;100308.22;4974467;27;98482;-66
2022/12/26 11:30:50;;;;;;;;;;;;;;;18.14;47.38;100306.78;4990283;27;98319;-66
2022/12/26 11:33:21;;;;;;;;;;;;;;;18.06;47.51;100300.19;4975672;27;98371;-65
2022/12/26 11:35:51;;;;;;;;;;;;;;;18.03;47.46;100300.84;4975263;27;100941;-70
2022/12/26 11:38:33;;;;;;;;;;;;;;;18.00;47.42;100298.78;4972904;27;98325;-65
2022/12/26 11:41:31;;;;;;;;;;;;;;;17.97;47.59;100301.34;4977629;27;100560;-65
2022/12/26 11:44:19;;;;;;;;;;;;;;;17.93;47.63;100309.34;5023930;27;102001;-65
2022/12/26 11:46:55;;;;;;;;;;;;;;;17.84;47.52;100314.81;4979427;27;98316;-64
2022/12/26 11:49:39;;;;;;;;;;;;;;;17.80;47.81;100319.28;5009419;27;98321;-63
2022/12/26 11:52:36;;;;;;;;;;;;;;;17.79;47.57;100312.22;4978582;27;115967;-64
2022/12/26 11:55:21;;;;;;;;;;;;;;;17.79;47.75;100304.03;5027785;27;98220;-68
2022/12/26 11:58:13;;;;;;;;;;;;;;;17.78;47.70;100301.63;5009979;27;98125;-64
2022/12/26 12:00:40;;;;;;;;;;;;;;;17.75;47.54;100303.06;5008437;27;98485;-64
2022/12/26 12:03:13;;;;;;;;;;;;;;;17.75;47.72;100308.53;4978782;27;99185;-68
2022/12/26 12:05:42;;;;;;;;;;;;;;;17.73;47.65;100302.56;4969008;27;102324;-65
2022/12/26 12:08:14;;;;;;;;;;;;;;;17.71;47.51;100299.34;5014521;27;98847;-70
2022/12/26 12:11:01;;;;;;;;;;;;;;;17.70;47.64;100288.78;5016076;27;100388;-65
2022/12/26 12:14:06;;;;;;;;;;;;;;;17.60;47.77;100298.03;4995355;27;99951;-68
2022/12/26 12:16:54;;;;;;;;;;;;;;;17.56;47.85;100297.88;4933807;28;99359;-69
2022/12/26 12:19:22;;;;;;;;;;;;;;;17.54;47.79;100294.69;4989806;27;98500;-67
2022/12/26 12:21:59;;;;;;;;;;;;;;;17.51;47.67;100287.13;4994068;27;98153;-64
2022/12/26 12:24:41;;;;;;;;;;;;;;;17.51;47.51;100289.84;4993973;27;98355;-66
2022/12/26 12:27:19;;;;;;;;;;;;;;;17.47;47.69;100286.16;4997780;27;98201;-64
2022/12/26 12:29:57;;;;;;;;;;;;;;;17.43;47.91;100287.94;4983260;27;97993;-65
2022/12/26 12:32:56;;;;;;;;;;;;;;;17.40;47.92;100294.00;5012388;27;98872;-70
2022/12/26 12:35:24;;;;;;;;;;;;;;;17.36;47.78;100293.81;4982618;27;98843;-65
2022/12/26 12:38:05;;;;;;;;;;;;;;;17.34;47.76;100298.81;4999379;27;97998;-64
2022/12/26 12:40:32;;;;;;;;;;;;;;;17.31;47.83;100304.06;4998199;27;98361;-63
2022/12/26 12:43:23;;;;;;;;;;;;;;;17.25;48.05;100322.50;4982993;27;102671;-61
2022/12/26 12:45:53;;;;;;;;;;;;;;;17.19;47.90;100329.19;4994229;27;98076;-66
2022/12/26 12:48:45;;;;;;;;;;;;;;;17.17;47.86;100326.78;4973804;27;107717;-68
2022/12/26 12:51:21;;;;;;;;;;;;;;;17.15;47.98;100330.94;4962346;27;105161;-68
2022/12/26 12:54:04;;;;;;;;;;;;;;;17.14;47.96;100329.34;4990673;27;98441;-68
2022/12/26 12:56:58;;;;;;;;;;;;;;;17.13;47.87;100331.28;4972637;27;99441;-69
2022/12/26 12:59:33;;;;;;;;;;;;;;;17.13;47.98;100330.44;4979830;27;120351;-69
2022/12/26 13:02:01;;;;;;;;;;;;;;;17.11;47.84;100336.22;4998390;27;99467;-67
2022/12/26 13:04:37;;;;;;;;;;;;;;;17.08;48.02;100331.38;4992358;27;124660;-67
2022/12/26 13:07:24;;;;;;;;;;;;;;;17.04;48.00;100333.13;4979087;27;98590;-64
2022/12/26 13:09:58;;;;;;;;;;;;;;;17.00;48.05;100353.13;4975526;27;99579;-64
2022/12/26 13:12:29;;;;;;;;;;;;;;;16.98;47.96;100347.19;4966292;27;98564;-64
2022/12/26 13:14:57;;;;;;;;;;;;;;;16.97;48.08;100351.81;4976924;27;102323;-64
2022/12/26 13:17:32;;;;;;;;;;;;;;;16.98;47.96;100352.63;4979389;27;98510;-64
2022/12/26 13:20:01;;;;;;;;;;;;;;;16.96;47.74;100358.41;4981414;27;97942;-69
2022/12/26 13:25:47;;;;;;;;;;;;;;;16.91;47.88;100366.69;4973075;27;98031;-67
2022/12/26 13:28:17;;;;;;;;;;;;;;;16.91;47.87;100369.44;4976119;27;99115;-64
2022/12/26 13:30:43;;;;;;;;;;;;;;;16.89;47.91;100369.72;4980987;27;99169;-68
2022/12/26 13:33:12;;;;;;;;;;;;;;;16.88;47.85;100376.28;4978327;27;111040;-68
2022/12/26 13:36:04;;;;;;;;;;;;;;;16.89;48.15;100377.09;4960959;27;106340;-65
2022/12/26 13:38:55;;;;;;;;;;;;;;;16.88;47.82;100379.00;4979861;27;98378;-65
2022/12/26 13:44:22;;;;;;;;;;;;;;;16.87;47.98;100369.25;4986816;27;98322;-70
2022/12/26 13:46:47;;;;;;;;;;;;;;;16.83;47.93;100373.69;4966687;27;98170;-70
2022/12/26 13:49:34;;;;;;;;;;;;;;;16.85;47.96;100374.19;4997868;27;98281;-65
2022/12/26 13:52:09;;;;;;;;;;;;;;;16.91;48.13;100367.50;4980994;27;98349;-65
2022/12/26 13:54:36;;;;;;;;;;;;;;;16.96;47.88;100366.56;5000713;27;98083;-65
2022/12/26 13:57:30;;;;;;;;;;;;;;;17.00;48.05;100378.44;4962487;27;99489;-64
2022/12/26 14:00:01;;;;;;;;;;;;;;;17.04;47.93;100376.69;4993258;27;99690;-69
2022/12/26 14:02:50;;;;;;;;;;;;;;;17.04;48.10;100363.09;4975500;27;97890;-65
2022/12/26 14:05:27;;;;;;;;;;;;;;;17.06;47.93;100360.06;4995466;27;99698;-64
2022/12/26 14:08:15;;;;;;;;;;;;;;;17.08;47.89;100365.97;4988748;27;126086;-63
2022/12/26 14:11:03;;;;;;;;;;;;;;;17.06;48.14;100363.59;4997597;27;98198;-67
2022/12/26 14:13:53;;;;;;;;;;;;;;;17.07;48.10;100364.38;4992159;27;98062;-67
2022/12/26 14:16:36;;;;;;;;;;;;;;;17.07;48.16;100372.56;5010674;27;99632;-68
2022/12/26 14:19:11;;;;;;;;;;;;;;;17.05;48.16;100372.84;4979912;27;99962;-65
2022/12/26 14:22:15;;;;;;;;;;;;;;;17.04;48.08;100367.72;4992891;27;115657;-68
2022/12/26 14:25:03;;;;;;;;;;;;;;;17.03;48.18;100368.84;4914077;28;98762;-64
2022/12/26 14:27:44;;;;;;;;;;;;;;;17.00;48.19;100351.22;4896573;28;98841;-65
2022/12/26 14:31:10;;;;;;;;;;;;;;;16.99;48.22;100356.97;4954176;27;98245;-66
2022/12/26 14:33:39;;;;;;;;;;;;;;;16.95;48.09;100359.53;4937081;28;101821;-69
2022/12/26 14:36:29;;;;;;;;;;;;;;;16.90;48.29;100360.47;4935623;28;98326;-70
2022/12/26 14:39:47;;;;;;;;;;;;;;;16.88;48.28;100359.16;4968297;27;98466;-70
2022/12/26 14:45:02;;;;;;;;;;;;;;;16.80;48.39;100359.91;4982276;27;98784;-65
2022/12/26 14:47:35;;;;;;;;;;;;;;;16.76;48.46;100370.63;4962406;27;118883;-70
2022/12/26 14:50:36;;;;;;;;;;;;;;;16.73;48.41;100360.34;4981625;27;98206;-65
2022/12/26 14:53:28;;;;;;;;;;;;;;;16.68;48.30;100365.88;5009821;27;98436;-68
2022/12/26 14:56:30;;;;;;;;;;;;;;;16.64;48.26;100364.91;4994403;27;99429;-70
2022/12/26 14:59:24;;;;;;;;;;;;;;;16.61;48.27;100362.78;4955048;27;108018;-65
2022/12/26 15:02:00;;;;;;;;;;;;;;;16.56;48.47;100369.16;4997789;27;98420;-66
2022/12/26 15:04:43;;;;;;;;;;;;;;;16.53;48.47;100374.44;4964029;27;98081;-70
2022/12/26 15:07:30;;;;;;;;;;;;;;;16.50;48.35;100380.47;4965368;27;113665;-65
2022/12/26 15:10:21;;;;;;;;;;;;;;;16.46;48.33;100377.56;4993611;27;118469;-65
2022/12/26 15:13:01;;;;;;;;;;;;;;;16.42;48.43;100382.00;4997387;27;98044;-69